sensor_id;sensor_type;location;lat;lon;timestamp;P1;durP1;ratioP1;P2;durP2;ratioP2
71566;SDS011;59403;47.456;19.120;2023-04-15T00:02:14;6.07;;;4.40;;
71566;SDS011;59403;47.456;19.120;2023-04-15T00:04:42;6.87;;;4.70;;
71566;SDS011;59403;47.456;19.120;2023-04-15T00:07:09;6.35;;;4.50;;
71566;SDS011;59403;47.456;19.120;2023-04-15T00:09:36;6.53;;;4.50;;
71566;SDS011;59403;47.456;19.120;2023-04-15T00:12:03;8.07;;;5.07;;
71566;SDS011;59403;47.456;19.120;2023-04-15T00:14:30;7.30;;;5.25;;
71566;SDS011;59403;47.456;19.120;2023-04-15T00:17:00;8.15;;;5.35;;
71566;SDS011;59403;47.456;19.120;2023-04-15T00:19:27;7.03;;;4.80;;
71566;SDS011;59403;47.456;19.120;2023-04-15T00:21:54;7.35;;;4.47;;
71566;SDS011;59403;47.456;19.120;2023-04-15T00:24:21;6.97;;;4.83;;
71566;SDS011;59403;47.456;19.120;2023-04-15T00:26:48;7.28;;;4.60;;
71566;SDS011;59403;47.456;19.120;2023-04-15T00:29:15;7.45;;;4.80;;
71566;SDS011;59403;47.456;19.120;2023-04-15T00:31:42;7.70;;;5.12;;
71566;SDS011;59403;47.456;19.120;2023-04-15T00:34:10;6.82;;;4.60;;
71566;SDS011;59403;47.456;19.120;2023-04-15T00:36:37;6.30;;;4.27;;
71566;SDS011;59403;47.456;19.120;2023-04-15T00:39:05;7.40;;;4.68;;
71566;SDS011;59403;47.456;19.120;2023-04-15T00:41:32;8.38;;;5.15;;
71566;SDS011;59403;47.456;19.120;2023-04-15T00:43:59;9.07;;;4.93;;
71566;SDS011;59403;47.456;19.120;2023-04-15T00:46:27;6.95;;;4.87;;
71566;SDS011;59403;47.456;19.120;2023-04-15T00:48:56;7.20;;;4.67;;
71566;SDS011;59403;47.456;19.120;2023-04-15T00:51:24;8.13;;;4.90;;
71566;SDS011;59403;47.456;19.120;2023-04-15T00:53:51;7.60;;;5.60;;
71566;SDS011;59403;47.456;19.120;2023-04-15T00:56:18;8.13;;;5.35;;
71566;SDS011;59403;47.456;19.120;2023-04-15T00:58:48;7.85;;;5.15;;
71566;SDS011;59403;47.456;19.120;2023-04-15T01:01:16;7.17;;;5.20;;
71566;SDS011;59403;47.456;19.120;2023-04-15T01:03:46;8.30;;;5.93;;
71566;SDS011;59403;47.456;19.120;2023-04-15T01:06:15;7.90;;;5.28;;
71566;SDS011;59403;47.456;19.120;2023-04-15T01:08:44;7.95;;;5.72;;
71566;SDS011;59403;47.456;19.120;2023-04-15T01:11:11;10.15;;;6.25;;
71566;SDS011;59403;47.456;19.120;2023-04-15T01:13:39;7.90;;;5.47;;
71566;SDS011;59403;47.456;19.120;2023-04-15T01:16:06;7.85;;;5.18;;
71566;SDS011;59403;47.456;19.120;2023-04-15T01:18:35;7.57;;;5.22;;
71566;SDS011;59403;47.456;19.120;2023-04-15T01:21:03;8.25;;;5.45;;
71566;SDS011;59403;47.456;19.120;2023-04-15T01:23:30;8.15;;;5.80;;
71566;SDS011;59403;47.456;19.120;2023-04-15T01:25:59;7.33;;;5.33;;
71566;SDS011;59403;47.456;19.120;2023-04-15T01:28:27;9.20;;;5.22;;
71566;SDS011;59403;47.456;19.120;2023-04-15T01:31:04;8.65;;;5.50;;
71566;SDS011;59403;47.456;19.120;2023-04-15T01:33:32;8.38;;;5.43;;
71566;SDS011;59403;47.456;19.120;2023-04-15T01:35:59;8.70;;;5.53;;
71566;SDS011;59403;47.456;19.120;2023-04-15T01:38:26;9.07;;;5.67;;
71566;SDS011;59403;47.456;19.120;2023-04-15T01:40:55;8.73;;;5.78;;
71566;SDS011;59403;47.456;19.120;2023-04-15T01:43:23;10.02;;;5.87;;
71566;SDS011;59403;47.456;19.120;2023-04-15T01:45:50;9.25;;;6.00;;
71566;SDS011;59403;47.456;19.120;2023-04-15T01:48:17;9.02;;;5.70;;
71566;SDS011;59403;47.456;19.120;2023-04-15T01:50:44;8.43;;;5.40;;
71566;SDS011;59403;47.456;19.120;2023-04-15T01:53:11;10.05;;;5.70;;
71566;SDS011;59403;47.456;19.120;2023-04-15T01:55:38;7.93;;;5.25;;
71566;SDS011;59403;47.456;19.120;2023-04-15T01:58:05;9.55;;;5.57;;
71566;SDS011;59403;47.456;19.120;2023-04-15T02:00:33;9.15;;;6.28;;
71566;SDS011;59403;47.456;19.120;2023-04-15T02:03:00;8.87;;;5.53;;
71566;SDS011;59403;47.456;19.120;2023-04-15T02:05:27;7.93;;;5.20;;
71566;SDS011;59403;47.456;19.120;2023-04-15T02:07:54;8.73;;;5.20;;
71566;SDS011;59403;47.456;19.120;2023-04-15T02:10:23;7.47;;;5.12;;
71566;SDS011;59403;47.456;19.120;2023-04-15T02:12:50;8.27;;;5.60;;
71566;SDS011;59403;47.456;19.120;2023-04-15T02:15:17;7.37;;;4.90;;
71566;SDS011;59403;47.456;19.120;2023-04-15T02:17:45;7.87;;;5.10;;
71566;SDS011;59403;47.456;19.120;2023-04-15T02:20:15;8.77;;;5.30;;
71566;SDS011;59403;47.456;19.120;2023-04-15T02:22:42;8.60;;;5.22;;
71566;SDS011;59403;47.456;19.120;2023-04-15T02:25:09;7.65;;;5.32;;
71566;SDS011;59403;47.456;19.120;2023-04-15T02:27:36;9.07;;;5.50;;
71566;SDS011;59403;47.456;19.120;2023-04-15T02:30:03;10.13;;;5.07;;
71566;SDS011;59403;47.456;19.120;2023-04-15T02:32:31;10.20;;;5.22;;
71566;SDS011;59403;47.456;19.120;2023-04-15T02:35:02;7.75;;;5.37;;
71566;SDS011;59403;47.456;19.120;2023-04-15T02:37:29;8.43;;;5.40;;
71566;SDS011;59403;47.456;19.120;2023-04-15T02:40:00;8.10;;;5.13;;
71566;SDS011;59403;47.456;19.120;2023-04-15T02:42:29;7.10;;;4.72;;
71566;SDS011;59403;47.456;19.120;2023-04-15T02:44:56;7.57;;;4.93;;
71566;SDS011;59403;47.456;19.120;2023-04-15T02:47:23;7.62;;;5.28;;
71566;SDS011;59403;47.456;19.120;2023-04-15T02:49:50;7.00;;;4.72;;
71566;SDS011;59403;47.456;19.120;2023-04-15T02:52:19;7.93;;;5.13;;
71566;SDS011;59403;47.456;19.120;2023-04-15T02:54:45;8.27;;;4.68;;
71566;SDS011;59403;47.456;19.120;2023-04-15T02:57:12;8.55;;;5.35;;
71566;SDS011;59403;47.456;19.120;2023-04-15T02:59:39;7.97;;;4.95;;
71566;SDS011;59403;47.456;19.120;2023-04-15T03:02:06;9.55;;;5.18;;
71566;SDS011;59403;47.456;19.120;2023-04-15T03:04:33;7.77;;;4.80;;
71566;SDS011;59403;47.456;19.120;2023-04-15T03:07:00;7.70;;;4.80;;
71566;SDS011;59403;47.456;19.120;2023-04-15T03:09:28;7.18;;;5.05;;
71566;SDS011;59403;47.456;19.120;2023-04-15T03:11:55;8.40;;;4.75;;
71566;SDS011;59403;47.456;19.120;2023-04-15T03:14:22;7.43;;;4.68;;
71566;SDS011;59403;47.456;19.120;2023-04-15T03:16:49;6.17;;;3.97;;
71566;SDS011;59403;47.456;19.120;2023-04-15T03:19:17;6.35;;;4.37;;
71566;SDS011;59403;47.456;19.120;2023-04-15T03:21:43;8.07;;;4.90;;
71566;SDS011;59403;47.456;19.120;2023-04-15T03:24:11;7.12;;;4.22;;
71566;SDS011;59403;47.456;19.120;2023-04-15T03:26:39;7.75;;;4.55;;
71566;SDS011;59403;47.456;19.120;2023-04-15T03:29:06;6.97;;;4.63;;
71566;SDS011;59403;47.456;19.120;2023-04-15T03:31:33;7.93;;;4.80;;
71566;SDS011;59403;47.456;19.120;2023-04-15T03:34:00;6.37;;;4.50;;
71566;SDS011;59403;47.456;19.120;2023-04-15T03:36:28;7.30;;;4.47;;
71566;SDS011;59403;47.456;19.120;2023-04-15T03:38:55;8.75;;;4.60;;
71566;SDS011;59403;47.456;19.120;2023-04-15T03:41:22;6.67;;;4.60;;
71566;SDS011;59403;47.456;19.120;2023-04-15T03:43:51;7.05;;;4.53;;
71566;SDS011;59403;47.456;19.120;2023-04-15T03:46:17;7.25;;;5.07;;
71566;SDS011;59403;47.456;19.120;2023-04-15T03:48:45;7.20;;;4.85;;
71566;SDS011;59403;47.456;19.120;2023-04-15T03:51:12;8.52;;;5.18;;
71566;SDS011;59403;47.456;19.120;2023-04-15T03:53:39;8.50;;;5.03;;
71566;SDS011;59403;47.456;19.120;2023-04-15T03:56:06;7.87;;;4.90;;
71566;SDS011;59403;47.456;19.120;2023-04-15T03:58:33;9.75;;;5.37;;
71566;SDS011;59403;47.456;19.120;2023-04-15T04:01:02;7.68;;;5.00;;
71566;SDS011;59403;47.456;19.120;2023-04-15T04:03:29;8.05;;;4.57;;
71566;SDS011;59403;47.456;19.120;2023-04-15T04:05:56;7.47;;;5.23;;
71566;SDS011;59403;47.456;19.120;2023-04-15T04:08:23;7.68;;;4.90;;
71566;SDS011;59403;47.456;19.120;2023-04-15T04:10:51;8.18;;;5.07;;
71566;SDS011;59403;47.456;19.120;2023-04-15T04:13:18;8.90;;;5.20;;
71566;SDS011;59403;47.456;19.120;2023-04-15T04:15:45;7.12;;;4.80;;
71566;SDS011;59403;47.456;19.120;2023-04-15T04:18:13;7.30;;;4.80;;
71566;SDS011;59403;47.456;19.120;2023-04-15T04:20:40;6.97;;;4.72;;
71566;SDS011;59403;47.456;19.120;2023-04-15T04:23:07;6.45;;;4.57;;
71566;SDS011;59403;47.456;19.120;2023-04-15T04:25:34;6.82;;;4.47;;
71566;SDS011;59403;47.456;19.120;2023-04-15T04:28:01;8.88;;;5.45;;
71566;SDS011;59403;47.456;19.120;2023-04-15T04:30:29;7.97;;;5.10;;
71566;SDS011;59403;47.456;19.120;2023-04-15T04:32:55;7.53;;;4.95;;
71566;SDS011;59403;47.456;19.120;2023-04-15T04:35:24;7.72;;;4.87;;
71566;SDS011;59403;47.456;19.120;2023-04-15T04:37:51;6.87;;;4.80;;
71566;SDS011;59403;47.456;19.120;2023-04-15T04:40:18;8.20;;;5.35;;
71566;SDS011;59403;47.456;19.120;2023-04-15T04:42:45;8.30;;;5.10;;
71566;SDS011;59403;47.456;19.120;2023-04-15T04:45:13;9.02;;;5.00;;
71566;SDS011;59403;47.456;19.120;2023-04-15T04:47:40;8.50;;;5.70;;
71566;SDS011;59403;47.456;19.120;2023-04-15T04:50:07;7.80;;;4.72;;
71566;SDS011;59403;47.456;19.120;2023-04-15T04:52:36;7.47;;;5.00;;
71566;SDS011;59403;47.456;19.120;2023-04-15T04:55:03;7.77;;;4.90;;
71566;SDS011;59403;47.456;19.120;2023-04-15T04:57:32;8.20;;;5.53;;
71566;SDS011;59403;47.456;19.120;2023-04-15T05:00:00;8.60;;;5.43;;
71566;SDS011;59403;47.456;19.120;2023-04-15T05:02:28;10.55;;;5.82;;
71566;SDS011;59403;47.456;19.120;2023-04-15T05:04:56;8.18;;;5.70;;
71566;SDS011;59403;47.456;19.120;2023-04-15T05:07:23;7.70;;;5.33;;
71566;SDS011;59403;47.456;19.120;2023-04-15T05:09:51;8.48;;;5.30;;
71566;SDS011;59403;47.456;19.120;2023-04-15T05:12:18;7.95;;;5.40;;
71566;SDS011;59403;47.456;19.120;2023-04-15T05:14:45;7.78;;;5.07;;
71566;SDS011;59403;47.456;19.120;2023-04-15T05:17:12;7.70;;;5.20;;
71566;SDS011;59403;47.456;19.120;2023-04-15T05:19:39;8.13;;;5.50;;
71566;SDS011;59403;47.456;19.120;2023-04-15T05:22:06;8.75;;;5.45;;
71566;SDS011;59403;47.456;19.120;2023-04-15T05:24:33;9.02;;;5.95;;
71566;SDS011;59403;47.456;19.120;2023-04-15T05:27:02;7.70;;;5.37;;
71566;SDS011;59403;47.456;19.120;2023-04-15T05:29:28;7.62;;;5.80;;
71566;SDS011;59403;47.456;19.120;2023-04-15T05:31:55;8.23;;;5.00;;
71566;SDS011;59403;47.456;19.120;2023-04-15T05:34:22;7.32;;;5.10;;
71566;SDS011;59403;47.456;19.120;2023-04-15T05:36:49;8.65;;;5.30;;
71566;SDS011;59403;47.456;19.120;2023-04-15T05:39:16;7.85;;;5.40;;
71566;SDS011;59403;47.456;19.120;2023-04-15T05:41:43;9.13;;;5.65;;
71566;SDS011;59403;47.456;19.120;2023-04-15T05:44:12;8.30;;;4.90;;
71566;SDS011;59403;47.456;19.120;2023-04-15T05:46:39;8.25;;;5.65;;
71566;SDS011;59403;47.456;19.120;2023-04-15T05:49:06;8.35;;;5.50;;
71566;SDS011;59403;47.456;19.120;2023-04-15T05:51:32;9.88;;;6.47;;
71566;SDS011;59403;47.456;19.120;2023-04-15T05:54:00;8.13;;;5.85;;
71566;SDS011;59403;47.456;19.120;2023-04-15T05:56:26;7.87;;;5.07;;
71566;SDS011;59403;47.456;19.120;2023-04-15T05:58:53;8.02;;;5.35;;
71566;SDS011;59403;47.456;19.120;2023-04-15T06:01:22;7.75;;;5.82;;
71566;SDS011;59403;47.456;19.120;2023-04-15T06:03:49;7.97;;;5.85;;
71566;SDS011;59403;47.456;19.120;2023-04-15T06:06:16;9.52;;;6.60;;
71566;SDS011;59403;47.456;19.120;2023-04-15T06:08:43;9.47;;;6.47;;
71566;SDS011;59403;47.456;19.120;2023-04-15T06:11:10;8.05;;;5.18;;
71566;SDS011;59403;47.456;19.120;2023-04-15T06:13:37;9.63;;;5.60;;
71566;SDS011;59403;47.456;19.120;2023-04-15T06:16:04;9.35;;;5.90;;
71566;SDS011;59403;47.456;19.120;2023-04-15T06:18:33;10.30;;;6.70;;
71566;SDS011;59403;47.456;19.120;2023-04-15T06:21:00;9.00;;;5.10;;
71566;SDS011;59403;47.456;19.120;2023-04-15T06:23:27;7.78;;;5.20;;
71566;SDS011;59403;47.456;19.120;2023-04-15T06:25:54;8.75;;;5.62;;
71566;SDS011;59403;47.456;19.120;2023-04-15T06:28:21;9.98;;;5.37;;
71566;SDS011;59403;47.456;19.120;2023-04-15T06:30:47;7.55;;;5.30;;
71566;SDS011;59403;47.456;19.120;2023-04-15T06:33:14;6.43;;;4.37;;
71566;SDS011;59403;47.456;19.120;2023-04-15T06:35:43;6.95;;;4.62;;
71566;SDS011;59403;47.456;19.120;2023-04-15T06:38:11;5.57;;;4.43;;
71566;SDS011;59403;47.456;19.120;2023-04-15T06:40:38;7.32;;;4.28;;
71566;SDS011;59403;47.456;19.120;2023-04-15T06:43:05;6.22;;;4.15;;
71566;SDS011;59403;47.456;19.120;2023-04-15T06:45:33;6.53;;;4.43;;
71566;SDS011;59403;47.456;19.120;2023-04-15T06:48:00;5.93;;;4.40;;
71566;SDS011;59403;47.456;19.120;2023-04-15T06:50:27;6.25;;;4.53;;
71566;SDS011;59403;47.456;19.120;2023-04-15T06:52:55;6.90;;;4.45;;
71566;SDS011;59403;47.456;19.120;2023-04-15T06:55:22;6.70;;;4.20;;
71566;SDS011;59403;47.456;19.120;2023-04-15T06:57:49;5.50;;;3.90;;
71566;SDS011;59403;47.456;19.120;2023-04-15T07:00:16;6.90;;;4.70;;
71566;SDS011;59403;47.456;19.120;2023-04-15T07:02:43;5.30;;;4.20;;
71566;SDS011;59403;47.456;19.120;2023-04-15T07:05:10;5.22;;;3.65;;
71566;SDS011;59403;47.456;19.120;2023-04-15T07:07:37;5.57;;;4.10;;
71566;SDS011;59403;47.456;19.120;2023-04-15T07:10:06;5.50;;;3.93;;
71566;SDS011;59403;47.456;19.120;2023-04-15T07:12:36;6.18;;;4.12;;
71566;SDS011;59403;47.456;19.120;2023-04-15T07:15:03;6.50;;;4.05;;
71566;SDS011;59403;47.456;19.120;2023-04-15T07:17:31;6.93;;;3.70;;
71566;SDS011;59403;47.456;19.120;2023-04-15T07:19:58;4.75;;;3.28;;
71566;SDS011;59403;47.456;19.120;2023-04-15T07:22:26;4.90;;;3.47;;
71566;SDS011;59403;47.456;19.120;2023-04-15T07:24:52;6.22;;;4.07;;
71566;SDS011;59403;47.456;19.120;2023-04-15T07:27:21;4.87;;;3.55;;
71566;SDS011;59403;47.456;19.120;2023-04-15T07:29:48;5.15;;;3.80;;
71566;SDS011;59403;47.456;19.120;2023-04-15T07:32:16;4.53;;;3.85;;
71566;SDS011;59403;47.456;19.120;2023-04-15T07:34:43;4.73;;;3.57;;
71566;SDS011;59403;47.456;19.120;2023-04-15T07:37:10;5.28;;;3.65;;
71566;SDS011;59403;47.456;19.120;2023-04-15T07:39:37;4.40;;;3.67;;
71566;SDS011;59403;47.456;19.120;2023-04-15T07:42:04;5.40;;;3.50;;
71566;SDS011;59403;47.456;19.120;2023-04-15T07:44:33;5.05;;;3.40;;
71566;SDS011;59403;47.456;19.120;2023-04-15T07:47:00;4.33;;;3.20;;
71566;SDS011;59403;47.456;19.120;2023-04-15T07:49:28;5.30;;;3.03;;
71566;SDS011;59403;47.456;19.120;2023-04-15T07:51:55;5.32;;;3.28;;
71566;SDS011;59403;47.456;19.120;2023-04-15T07:54:24;5.68;;;3.33;;
71566;SDS011;59403;47.456;19.120;2023-04-15T07:56:51;4.15;;;3.08;;
71566;SDS011;59403;47.456;19.120;2023-04-15T07:59:18;3.47;;;2.70;;
71566;SDS011;59403;47.456;19.120;2023-04-15T08:01:47;4.07;;;2.72;;
71566;SDS011;59403;47.456;19.120;2023-04-15T08:04:14;3.30;;;2.53;;
71566;SDS011;59403;47.456;19.120;2023-04-15T08:06:41;4.35;;;2.78;;
71566;SDS011;59403;47.456;19.120;2023-04-15T08:09:08;3.92;;;2.17;;
71566;SDS011;59403;47.456;19.120;2023-04-15T08:11:35;2.67;;;1.80;;
71566;SDS011;59403;47.456;19.120;2023-04-15T08:14:02;3.62;;;1.80;;
71566;SDS011;59403;47.456;19.120;2023-04-15T08:16:29;3.40;;;2.08;;
71566;SDS011;59403;47.456;19.120;2023-04-15T08:18:57;4.43;;;2.25;;
71566;SDS011;59403;47.456;19.120;2023-04-15T08:21:24;3.28;;;2.20;;
71566;SDS011;59403;47.456;19.120;2023-04-15T08:23:52;5.97;;;2.40;;
71566;SDS011;59403;47.456;19.120;2023-04-15T08:26:19;3.20;;;2.00;;
71566;SDS011;59403;47.456;19.120;2023-04-15T08:28:47;6.05;;;3.10;;
71566;SDS011;59403;47.456;19.120;2023-04-15T08:31:14;3.92;;;2.53;;
71566;SDS011;59403;47.456;19.120;2023-04-15T08:33:42;3.30;;;2.17;;
71566;SDS011;59403;47.456;19.120;2023-04-15T08:36:11;2.30;;;1.70;;
71566;SDS011;59403;47.456;19.120;2023-04-15T08:38:38;2.55;;;1.90;;
71566;SDS011;59403;47.456;19.120;2023-04-15T08:41:06;3.55;;;2.05;;
71566;SDS011;59403;47.456;19.120;2023-04-15T08:43:39;3.15;;;1.50;;
71566;SDS011;59403;47.456;19.120;2023-04-15T08:46:17;2.17;;;1.15;;
71566;SDS011;59403;47.456;19.120;2023-04-15T08:48:44;2.70;;;1.40;;
71566;SDS011;59403;47.456;19.120;2023-04-15T08:51:15;2.72;;;1.75;;
71566;SDS011;59403;47.456;19.120;2023-04-15T08:53:42;1.90;;;1.25;;
71566;SDS011;59403;47.456;19.120;2023-04-15T08:56:11;2.15;;;1.30;;
71566;SDS011;59403;47.456;19.120;2023-04-15T08:58:40;2.05;;;1.37;;
71566;SDS011;59403;47.456;19.120;2023-04-15T09:01:09;3.00;;;1.57;;
71566;SDS011;59403;47.456;19.120;2023-04-15T09:03:37;3.83;;;2.37;;
71566;SDS011;59403;47.456;19.120;2023-04-15T09:06:04;2.40;;;1.35;;
71566;SDS011;59403;47.456;19.120;2023-04-15T09:08:33;3.85;;;1.60;;
71566;SDS011;59403;47.456;19.120;2023-04-15T09:11:01;3.25;;;1.37;;
71566;SDS011;59403;47.456;19.120;2023-04-15T09:13:28;2.23;;;1.17;;
71566;SDS011;59403;47.456;19.120;2023-04-15T09:15:55;3.40;;;1.92;;
71566;SDS011;59403;47.456;19.120;2023-04-15T09:18:28;1.90;;;1.10;;
71566;SDS011;59403;47.456;19.120;2023-04-15T09:21:03;2.40;;;1.40;;
71566;SDS011;59403;47.456;19.120;2023-04-15T09:23:31;2.22;;;1.60;;
71566;SDS011;59403;47.456;19.120;2023-04-15T09:26:00;16.27;;;6.57;;
71566;SDS011;59403;47.456;19.120;2023-04-15T09:28:27;8.95;;;4.45;;
71566;SDS011;59403;47.456;19.120;2023-04-15T09:30:55;4.40;;;1.58;;
71566;SDS011;59403;47.456;19.120;2023-04-15T09:33:23;3.47;;;1.10;;
71566;SDS011;59403;47.456;19.120;2023-04-15T09:35:55;1.75;;;0.82;;
71566;SDS011;59403;47.456;19.120;2023-04-15T09:38:24;2.70;;;1.27;;
71566;SDS011;59403;47.456;19.120;2023-04-15T09:40:51;1.83;;;1.23;;
71566;SDS011;59403;47.456;19.120;2023-04-15T09:43:19;3.37;;;0.90;;
71566;SDS011;59403;47.456;19.120;2023-04-15T09:45:47;1.90;;;1.00;;
71566;SDS011;59403;47.456;19.120;2023-04-15T09:48:16;2.40;;;0.88;;
71566;SDS011;59403;47.456;19.120;2023-04-15T09:50:46;1.53;;;0.60;;
71566;SDS011;59403;47.456;19.120;2023-04-15T09:53:15;1.23;;;0.70;;
71566;SDS011;59403;47.456;19.120;2023-04-15T09:55:44;1.60;;;0.62;;
71566;SDS011;59403;47.456;19.120;2023-04-15T09:58:16;1.70;;;0.60;;
71566;SDS011;59403;47.456;19.120;2023-04-15T10:00:46;1.87;;;0.90;;
71566;SDS011;59403;47.456;19.120;2023-04-15T10:03:15;1.40;;;0.50;;
71566;SDS011;59403;47.456;19.120;2023-04-15T10:05:45;1.95;;;0.75;;
71566;SDS011;59403;47.456;19.120;2023-04-15T10:08:13;1.10;;;0.50;;
71566;SDS011;59403;47.456;19.120;2023-04-15T10:10:43;2.42;;;1.27;;
71566;SDS011;59403;47.456;19.120;2023-04-15T10:13:11;3.78;;;1.70;;
71566;SDS011;59403;47.456;19.120;2023-04-15T10:15:43;2.80;;;1.97;;
71566;SDS011;59403;47.456;19.120;2023-04-15T10:18:13;2.78;;;1.87;;
71566;SDS011;59403;47.456;19.120;2023-04-15T10:20:43;3.90;;;2.80;;
71566;SDS011;59403;47.456;19.120;2023-04-15T10:23:10;3.30;;;2.60;;
71566;SDS011;59403;47.456;19.120;2023-04-15T10:25:37;2.90;;;2.28;;
71566;SDS011;59403;47.456;19.120;2023-04-15T10:28:05;3.23;;;2.10;;
71566;SDS011;59403;47.456;19.120;2023-04-15T10:30:32;2.58;;;1.70;;
71566;SDS011;59403;47.456;19.120;2023-04-15T10:32:59;4.00;;;1.65;;
71566;SDS011;59403;47.456;19.120;2023-04-15T10:35:29;2.53;;;1.80;;
71566;SDS011;59403;47.456;19.120;2023-04-15T10:37:58;3.22;;;1.12;;
71566;SDS011;59403;47.456;19.120;2023-04-15T10:40:26;2.03;;;0.63;;
71566;SDS011;59403;47.456;19.120;2023-04-15T10:42:56;1.10;;;0.43;;
71566;SDS011;59403;47.456;19.120;2023-04-15T10:45:27;0.80;;;0.50;;
71566;SDS011;59403;47.456;19.120;2023-04-15T10:47:57;1.62;;;0.62;;
71566;SDS011;59403;47.456;19.120;2023-04-15T10:50:27;1.35;;;0.60;;
71566;SDS011;59403;47.456;19.120;2023-04-15T10:52:58;1.43;;;0.40;;
71566;SDS011;59403;47.456;19.120;2023-04-15T10:55:30;1.40;;;0.40;;
71566;SDS011;59403;47.456;19.120;2023-04-15T10:57:58;1.70;;;0.60;;
71566;SDS011;59403;47.456;19.120;2023-04-15T11:00:27;1.12;;;0.68;;
71566;SDS011;59403;47.456;19.120;2023-04-15T11:02:56;2.22;;;0.77;;
71566;SDS011;59403;47.456;19.120;2023-04-15T11:05:49;1.50;;;0.63;;
71566;SDS011;59403;47.456;19.120;2023-04-15T11:08:19;2.05;;;0.65;;
71566;SDS011;59403;47.456;19.120;2023-04-15T11:11:06;2.95;;;0.70;;
71566;SDS011;59403;47.456;19.120;2023-04-15T11:13:33;1.45;;;0.80;;
71566;SDS011;59403;47.456;19.120;2023-04-15T11:16:01;2.30;;;1.02;;
71566;SDS011;59403;47.456;19.120;2023-04-15T11:18:34;1.33;;;0.70;;
71566;SDS011;59403;47.456;19.120;2023-04-15T11:21:02;1.40;;;0.80;;
71566;SDS011;59403;47.456;19.120;2023-04-15T11:23:34;1.98;;;0.60;;
71566;SDS011;59403;47.456;19.120;2023-04-15T11:26:03;1.67;;;0.65;;
71566;SDS011;59403;47.456;19.120;2023-04-15T11:28:33;1.73;;;0.80;;
71566;SDS011;59403;47.456;19.120;2023-04-15T11:31:04;2.13;;;0.40;;
71566;SDS011;59403;47.456;19.120;2023-04-15T11:33:32;1.55;;;0.73;;
71566;SDS011;59403;47.456;19.120;2023-04-15T11:36:00;2.00;;;0.80;;
71566;SDS011;59403;47.456;19.120;2023-04-15T11:38:27;1.75;;;0.80;;
71566;SDS011;59403;47.456;19.120;2023-04-15T11:40:57;2.65;;;0.77;;
71566;SDS011;59403;47.456;19.120;2023-04-15T11:43:23;1.10;;;0.60;;
71566;SDS011;59403;47.456;19.120;2023-04-15T11:45:51;0.88;;;0.40;;
71566;SDS011;59403;47.456;19.120;2023-04-15T11:48:20;1.87;;;0.65;;
71566;SDS011;59403;47.456;19.120;2023-04-15T11:50:52;2.33;;;0.47;;
71566;SDS011;59403;47.456;19.120;2023-04-15T11:53:20;1.33;;;0.52;;
71566;SDS011;59403;47.456;19.120;2023-04-15T11:55:48;1.53;;;0.47;;
71566;SDS011;59403;47.456;19.120;2023-04-15T11:58:18;0.90;;;0.40;;
71566;SDS011;59403;47.456;19.120;2023-04-15T12:00:48;1.20;;;0.65;;
71566;SDS011;59403;47.456;19.120;2023-04-15T12:03:17;2.17;;;0.70;;
71566;SDS011;59403;47.456;19.120;2023-04-15T12:06:04;2.35;;;0.40;;
71566;SDS011;59403;47.456;19.120;2023-04-15T12:08:51;1.93;;;0.77;;
71566;SDS011;59403;47.456;19.120;2023-04-15T12:14:18;1.37;;;0.93;;
71566;SDS011;59403;47.456;19.120;2023-04-15T12:16:48;1.35;;;0.60;;
71566;SDS011;59403;47.456;19.120;2023-04-15T12:19:21;3.28;;;0.60;;
71566;SDS011;59403;47.456;19.120;2023-04-15T12:21:51;1.80;;;1.17;;
71566;SDS011;59403;47.456;19.120;2023-04-15T12:24:20;2.42;;;1.20;;
71566;SDS011;59403;47.456;19.120;2023-04-15T12:26:48;2.47;;;1.30;;
71566;SDS011;59403;47.456;19.120;2023-04-15T12:29:18;2.75;;;2.00;;
71566;SDS011;59403;47.456;19.120;2023-04-15T12:31:49;2.20;;;1.70;;
71566;SDS011;59403;47.456;19.120;2023-04-15T12:34:18;4.73;;;2.10;;
71566;SDS011;59403;47.456;19.120;2023-04-15T12:36:52;4.05;;;2.42;;
71566;SDS011;59403;47.456;19.120;2023-04-15T12:39:20;4.00;;;2.50;;
71566;SDS011;59403;47.456;19.120;2023-04-15T12:41:48;4.18;;;2.80;;
71566;SDS011;59403;47.456;19.120;2023-04-15T12:44:15;3.53;;;2.85;;
71566;SDS011;59403;47.456;19.120;2023-04-15T12:46:44;4.37;;;3.10;;
71566;SDS011;59403;47.456;19.120;2023-04-15T12:49:11;4.97;;;2.97;;
71566;SDS011;59403;47.456;19.120;2023-04-15T12:51:40;5.37;;;3.80;;
71566;SDS011;59403;47.456;19.120;2023-04-15T12:54:07;6.10;;;3.40;;
71566;SDS011;59403;47.456;19.120;2023-04-15T12:56:34;4.97;;;3.37;;
71566;SDS011;59403;47.456;19.120;2023-04-15T12:59:01;3.33;;;2.20;;
71566;SDS011;59403;47.456;19.120;2023-04-15T13:01:28;3.47;;;1.85;;
71566;SDS011;59403;47.456;19.120;2023-04-15T13:03:56;3.22;;;1.90;;
71566;SDS011;59403;47.456;19.120;2023-04-15T13:06:26;4.28;;;1.80;;
71566;SDS011;59403;47.456;19.120;2023-04-15T13:08:53;3.62;;;1.98;;
71566;SDS011;59403;47.456;19.120;2023-04-15T13:11:21;4.23;;;1.73;;
71566;SDS011;59403;47.456;19.120;2023-04-15T13:13:48;3.60;;;1.67;;
71566;SDS011;59403;47.456;19.120;2023-04-15T13:16:16;3.03;;;1.42;;
71566;SDS011;59403;47.456;19.120;2023-04-15T13:18:43;2.60;;;1.52;;
71566;SDS011;59403;47.456;19.120;2023-04-15T13:21:14;2.30;;;1.40;;
71566;SDS011;59403;47.456;19.120;2023-04-15T13:23:41;2.60;;;1.30;;
71566;SDS011;59403;47.456;19.120;2023-04-15T13:26:08;3.20;;;1.62;;
71566;SDS011;59403;47.456;19.120;2023-04-15T13:28:44;3.78;;;2.20;;
71566;SDS011;59403;47.456;19.120;2023-04-15T13:31:27;6.03;;;3.00;;
71566;SDS011;59403;47.456;19.120;2023-04-15T13:34:33;4.65;;;3.00;;
71566;SDS011;59403;47.456;19.120;2023-04-15T13:37:06;4.93;;;3.00;;
71566;SDS011;59403;47.456;19.120;2023-04-15T13:39:33;5.22;;;3.33;;
71566;SDS011;59403;47.456;19.120;2023-04-15T13:42:00;4.60;;;3.35;;
71566;SDS011;59403;47.456;19.120;2023-04-15T13:44:27;4.75;;;3.03;;
71566;SDS011;59403;47.456;19.120;2023-04-15T13:46:54;4.35;;;3.35;;
71566;SDS011;59403;47.456;19.120;2023-04-15T13:49:21;4.07;;;3.30;;
71566;SDS011;59403;47.456;19.120;2023-04-15T13:51:48;4.97;;;3.30;;
71566;SDS011;59403;47.456;19.120;2023-04-15T13:54:17;4.20;;;3.60;;
71566;SDS011;59403;47.456;19.120;2023-04-15T13:56:44;5.85;;;4.20;;
71566;SDS011;59403;47.456;19.120;2023-04-15T13:59:11;4.57;;;3.28;;
71566;SDS011;59403;47.456;19.120;2023-04-15T14:01:38;5.03;;;3.67;;
71566;SDS011;59403;47.456;19.120;2023-04-15T14:04:06;4.78;;;3.37;;
71566;SDS011;59403;47.456;19.120;2023-04-15T14:06:36;5.10;;;3.22;;
71566;SDS011;59403;47.456;19.120;2023-04-15T14:09:03;5.87;;;3.50;;
71566;SDS011;59403;47.456;19.120;2023-04-15T14:11:31;3.95;;;3.10;;
71566;SDS011;59403;47.456;19.120;2023-04-15T14:13:59;3.90;;;3.00;;
71566;SDS011;59403;47.456;19.120;2023-04-15T14:16:26;4.70;;;3.17;;
71566;SDS011;59403;47.456;19.120;2023-04-15T14:18:53;4.82;;;3.80;;
71566;SDS011;59403;47.456;19.120;2023-04-15T14:21:20;5.55;;;3.90;;
71566;SDS011;59403;47.456;19.120;2023-04-15T14:23:50;6.50;;;4.45;;
71566;SDS011;59403;47.456;19.120;2023-04-15T14:26:17;6.17;;;4.20;;
71566;SDS011;59403;47.456;19.120;2023-04-15T14:28:46;6.55;;;3.70;;
71566;SDS011;59403;47.456;19.120;2023-04-15T14:31:13;4.18;;;2.95;;
71566;SDS011;59403;47.456;19.120;2023-04-15T14:33:40;6.65;;;3.20;;
71566;SDS011;59403;47.456;19.120;2023-04-15T14:36:07;4.40;;;3.03;;
71566;SDS011;59403;47.456;19.120;2023-04-15T14:38:35;3.23;;;2.60;;
71566;SDS011;59403;47.456;19.120;2023-04-15T14:41:04;3.47;;;2.45;;
71566;SDS011;59403;47.456;19.120;2023-04-15T14:43:31;4.05;;;2.50;;